Time;durP1;ratioP1;P1;durP2;ratioP2;P2;SDS_P1;SDS_P2;PMS_P1;PMS_P2;Temp;Humidity;BMP_temperature;BMP_pressure;BME280_temperature;BME280_humidity;BME280_pressure;Samples;Min_cycle;Max_cycle;Signal;HPM_P1;HPM_P2
2023/12/01 00:01:19;;;;;;;13.45;5.63;;;12.60;74.30;;;;;;7554198;23;20413;-68
2023/12/01 00:04:20;;;;;;;9.60;5.13;;;12.70;74.20;;;;;;7526622;23;20717;-68
2023/12/01 00:07:21;;;;;;;13.07;5.88;;;12.70;74.00;;;;;;7554411;23;20102;-67
2023/12/01 00:10:22;;;;;;;10.05;5.63;;;12.60;74.00;;;;;;7528326;23;20031;-67
2023/12/01 00:13:23;;;;;;;11.77;4.93;;;12.60;74.00;;;;;;7528075;23;20373;-67
2023/12/01 00:16:24;;;;;;;9.10;4.60;;;12.60;74.30;;;;;;7553189;23;20014;-67
2023/12/01 00:19:25;;;;;;;8.75;5.00;;;12.50;74.20;;;;;;7554914;23;20058;-67
2023/12/01 00:22:26;;;;;;;9.32;5.18;;;12.60;74.50;;;;;;7554231;23;20409;-67
2023/12/01 00:25:26;;;;;;;8.57;3.95;;;12.60;74.50;;;;;;7555076;23;20013;-68
2023/12/01 00:28:27;;;;;;;9.82;4.88;;;12.60;74.50;;;;;;7553415;23;20512;-68
2023/12/01 00:31:28;;;;;;;8.07;4.03;;;12.60;74.30;;;;;;7504741;23;20310;-67
2023/12/01 00:34:29;;;;;;;7.75;4.22;;;12.60;74.30;;;;;;7527862;23;20021;-66
2023/12/01 00:37:33;;;;;;;6.13;3.30;;;12.60;74.30;;;;;;7553790;23;20417;-67
2023/12/01 00:40:34;;;;;;;5.93;3.92;;;12.60;74.30;;;;;;7528720;23;20524;-68
2023/12/01 00:43:36;;;;;;;6.88;3.47;;;12.60;74.40;;;;;;7528048;23;20018;-68
2023/12/01 00:46:37;;;;;;;7.00;4.07;;;12.60;74.50;;;;;;7554350;23;20010;-68
2023/12/01 00:49:38;;;;;;;7.32;4.10;;;12.60;74.50;;;;;;7527721;23;20037;-66
2023/12/01 00:52:39;;;;;;;6.85;4.03;;;12.60;74.40;;;;;;7527659;23;20014;-67
2023/12/01 00:55:40;;;;;;;5.97;3.63;;;12.60;74.40;;;;;;7527650;23;20010;-67
2023/12/01 00:58:42;;;;;;;6.35;3.70;;;12.70;74.30;;;;;;7503417;23;20026;-67
2023/12/01 01:01:43;;;;;;;7.28;3.47;;;12.60;74.20;;;;;;7527254;23;20089;-67
2023/12/01 01:04:43;;;;;;;6.78;3.70;;;12.60;74.30;;;;;;7553061;23;20036;-68
2023/12/01 01:07:46;;;;;;;8.68;4.13;;;12.60;74.30;;;;;;7553660;23;19998;-66
2023/12/01 01:10:46;;;;;;;6.38;3.80;;;12.50;74.40;;;;;;7504223;23;20452;-66
2023/12/01 01:13:49;;;;;;;5.88;4.15;;;12.50;74.60;;;;;;7503310;23;20006;-68
2023/12/01 01:16:50;;;;;;;6.75;4.07;;;12.50;74.60;;;;;;7526747;23;20124;-67
2023/12/01 01:19:51;;;;;;;7.20;4.55;;;12.50;74.80;;;;;;7552648;23;20350;-69
2023/12/01 01:22:52;;;;;;;6.72;3.42;;;12.50;75.00;;;;;;7527349;23;20014;-68
2023/12/01 01:25:52;;;;;;;5.05;3.33;;;12.50;75.00;;;;;;7553450;23;20089;-67
2023/12/01 01:28:53;;;;;;;6.45;3.78;;;12.50;75.00;;;;;;7527819;23;20061;-67
2023/12/01 01:31:54;;;;;;;5.80;3.72;;;12.50;74.90;;;;;;7553912;23;20114;-67
2023/12/01 01:34:55;;;;;;;8.02;3.53;;;12.60;74.90;;;;;;7527595;23;20037;-67
2023/12/01 01:37:56;;;;;;;5.50;3.58;;;12.60;74.90;;;;;;7527290;23;20006;-66
2023/12/01 01:40:56;;;;;;;5.20;3.03;;;12.60;74.80;;;;;;7503613;23;20085;-68
2023/12/01 01:43:57;;;;;;;6.32;4.07;;;12.70;74.80;;;;;;7527448;23;20018;-67
2023/12/01 01:46:59;;;;;;;5.15;3.13;;;12.60;74.70;;;;;;7527480;23;20002;-67
2023/12/01 01:50:06;;;;;;;5.20;3.00;;;12.70;74.70;;;;;;7526002;23;20054;-67
2023/12/01 01:53:07;;;;;;;4.82;3.00;;;12.70;74.60;;;;;;7527677;23;20018;-67
2023/12/01 01:56:11;;;;;;;5.45;3.08;;;12.60;74.70;;;;;;7527717;23;20013;-68
2023/12/01 01:59:13;;;;;;;5.20;3.65;;;12.60;74.80;;;;;;7551321;23;20010;-68
2023/12/01 02:02:14;;;;;;;6.68;3.20;;;12.60;74.90;;;;;;7527559;23;20018;-66
2023/12/01 02:05:15;;;;;;;9.25;3.92;;;12.70;75.00;;;;;;7526665;23;20018;-67
2023/12/01 02:08:29;;;;;;;6.00;3.50;;;12.60;74.80;;;;;;7552689;23;20378;-67
2023/12/01 02:11:30;;;;;;;6.93;4.35;;;12.60;74.80;;;;;;7503228;23;20093;-67
2023/12/01 02:14:36;;;;;;;6.32;3.47;;;12.70;74.80;;;;;;7526855;23;20010;-68
2023/12/01 02:17:40;;;;;;;4.13;2.83;;;12.70;74.80;;;;;;7526631;23;20014;-67
2023/12/01 02:20:41;;;;;;;3.45;2.72;;;12.70;74.80;;;;;;7527152;23;20010;-68
2023/12/01 02:23:44;;;;;;;7.72;3.38;;;12.70;74.80;;;;;;7553035;23;20442;-67
2023/12/01 02:26:45;;;;;;;5.47;3.20;;;12.70;74.70;;;;;;7527117;23;20014;-67
2023/12/01 02:29:47;;;;;;;3.83;2.70;;;12.70;74.90;;;;;;7526141;23;20606;-69
2023/12/01 02:32:52;;;;;;;6.32;3.20;;;12.60;74.70;;;;;;7527410;23;20058;-68
2023/12/01 02:35:54;;;;;;;5.32;3.53;;;12.70;74.70;;;;;;7526740;23;20015;-66
2023/12/01 02:38:54;;;;;;;5.57;3.03;;;12.60;74.70;;;;;;7553552;23;20495;-68
2023/12/01 02:41:55;;;;;;;4.32;2.60;;;12.60;74.90;;;;;;7502863;23;20074;-69
2023/12/01 02:44:56;;;;;;;5.72;3.22;;;12.60;74.90;;;;;;7552989;23;20487;-70
2023/12/01 02:47:57;;;;;;;6.20;3.85;;;12.60;74.90;;;;;;7479903;23;20054;-68
2023/12/01 02:50:58;;;;;;;6.15;3.45;;;12.60;75.00;;;;;;7527031;23;20073;-68
2023/12/01 02:53:59;;;;;;;4.00;2.53;;;12.60;75.20;;;;;;7551091;23;20025;-69
2023/12/01 02:56:59;;;;;;;8.02;3.55;;;12.60;75.20;;;;;;7553712;23;20019;-68
2023/12/01 03:00:03;;;;;;;6.47;3.50;;;12.60;75.10;;;;;;7503023;23;20353;-68
2023/12/01 03:03:06;;;;;;;5.57;3.53;;;12.60;75.10;;;;;;7553662;23;20097;-67
2023/12/01 03:06:07;;;;;;;4.70;3.08;;;12.60;75.10;;;;;;7553104;23;20017;-67
2023/12/01 03:09:16;;;;;;;4.97;3.03;;;12.60;75.00;;;;;;7553670;23;20006;-66
2023/12/01 03:12:17;;;;;;;5.75;2.38;;;12.60;75.00;;;;;;7553665;23;20425;-67
2023/12/01 03:15:19;;;;;;;4.50;2.63;;;12.60;75.10;;;;;;7553140;23;20029;-67
2023/12/01 03:18:20;;;;;;;4.35;3.00;;;12.60;75.10;;;;;;7503078;23;20018;-67
2023/12/01 03:21:21;;;;;;;6.75;3.10;;;12.70;75.10;;;;;;7527145;23;20011;-67
2023/12/01 03:24:22;;;;;;;5.28;2.70;;;12.70;75.00;;;;;;7528592;23;20046;-67
2023/12/01 03:27:26;;;;;;;4.10;2.20;;;12.70;75.00;;;;;;7527965;23;20098;-67
2023/12/01 03:30:27;;;;;;;6.47;3.30;;;12.60;75.00;;;;;;7526044;23;20286;-68
2023/12/01 03:33:28;;;;;;;4.30;3.03;;;12.60;75.10;;;;;;7527495;23;20002;-68
2023/12/01 03:36:29;;;;;;;6.43;3.35;;;12.60;75.20;;;;;;7552825;23;20038;-67
2023/12/01 03:39:33;;;;;;;3.95;2.58;;;12.60;75.30;;;;;;7527293;23;20058;-66
2023/12/01 03:42:38;;;;;;;4.70;2.72;;;12.60;75.30;;;;;;7526850;23;20010;-67
2023/12/01 03:45:39;;;;;;;3.00;1.90;;;12.60;75.20;;;;;;7526665;23;20422;-66
2023/12/01 03:48:41;;;;;;;3.15;2.00;;;12.60;75.30;;;;;;7553209;23;20135;-67
2023/12/01 03:51:41;;;;;;;4.38;2.22;;;12.60;75.30;;;;;;7528823;23;20023;-68
2023/12/01 03:54:43;;;;;;;14.30;2.42;;;12.70;75.40;;;;;;7554626;23;20010;-67
2023/12/01 03:57:45;;;;;;;4.80;2.45;;;12.70;75.30;;;;;;7554887;23;20592;-67
2023/12/01 04:00:46;;;;;;;5.03;2.85;;;12.70;75.20;;;;;;7528370;23;20037;-67
2023/12/01 04:03:47;;;;;;;4.90;2.75;;;12.70;75.10;;;;;;7554353;23;20078;-66
2023/12/01 04:06:48;;;;;;;7.45;2.92;;;12.70;75.10;;;;;;7527930;23;20358;-67
2023/12/01 04:09:49;;;;;;;3.80;2.50;;;12.60;75.00;;;;;;7554301;23;20297;-69
2023/12/01 04:12:50;;;;;;;3.30;2.03;;;12.60;75.20;;;;;;7554362;23;20087;-68
2023/12/01 04:15:51;;;;;;;3.70;2.53;;;12.50;75.30;;;;;;7528765;23;20014;-68
2023/12/01 04:18:53;;;;;;;1.75;1.45;;;12.50;75.40;;;;;;7503544;23;20029;-67
2023/12/01 04:21:54;;;;;;;5.80;1.80;;;12.50;75.50;;;;;;7553371;23;20101;-66
2023/12/01 04:24:55;;;;;;;3.65;2.17;;;12.50;75.60;;;;;;7528462;23;20022;-67
2023/12/01 04:27:57;;;;;;;4.07;1.77;;;12.50;75.50;;;;;;7528135;23;20127;-66
2023/12/01 04:30:59;;;;;;;2.17;1.60;;;12.60;75.50;;;;;;7526381;23;20049;-68
2023/12/01 04:33:59;;;;;;;2.42;1.58;;;12.60;75.60;;;;;;7554077;23;20102;-66
2023/12/01 04:37:00;;;;;;;2.13;1.55;;;12.60;75.50;;;;;;7553290;23;20067;-67
2023/12/01 04:40:01;;;;;;;4.13;1.85;;;12.60;75.60;;;;;;7528167;23;20047;-67
2023/12/01 04:43:03;;;;;;;3.55;1.85;;;12.60;75.60;;;;;;7555008;23;20140;-67
2023/12/01 04:46:04;;;;;;;6.35;2.60;;;12.60;75.60;;;;;;7554021;23;20037;-68
2023/12/01 04:49:08;;;;;;;3.25;1.77;;;12.70;75.50;;;;;;7554568;23;20007;-67
2023/12/01 04:52:09;;;;;;;2.05;1.50;;;12.60;75.40;;;;;;7528227;23;20053;-68
2023/12/01 04:55:14;;;;;;;3.03;1.48;;;12.60;75.60;;;;;;7553940;23;20100;-67
2023/12/01 04:58:15;;;;;;;3.58;1.77;;;12.60;75.70;;;;;;7527994;23;20040;-66
2023/12/01 05:01:17;;;;;;;1.92;1.02;;;12.60;75.70;;;;;;7528008;23;20034;-67
2023/12/01 05:04:18;;;;;;;1.35;1.13;;;12.60;75.60;;;;;;7527901;23;20089;-68
2023/12/01 05:07:19;;;;;;;4.78;1.77;;;12.60;75.60;;;;;;7527792;23;20002;-69
2023/12/01 05:10:22;;;;;;;2.38;1.10;;;12.60;75.60;;;;;;7527234;23;20026;-67
2023/12/01 05:13:23;;;;;;;2.05;1.00;;;12.60;75.60;;;;;;7553555;23;20033;-67
2023/12/01 05:16:25;;;;;;;2.28;1.45;;;12.60;75.60;;;;;;7527375;23;20022;-68
2023/12/01 05:19:27;;;;;;;0.60;0.60;;;12.60;75.60;;;;;;7553886;23;20018;-67
2023/12/01 05:22:28;;;;;;;0.65;0.65;;;12.60;75.60;;;;;;7529466;23;20346;-68
2023/12/01 05:25:32;;;;;;;1.23;0.98;;;12.60;75.50;;;;;;7529523;23;20012;-67
2023/12/01 05:28:33;;;;;;;1.42;0.60;;;12.60;75.50;;;;;;7555072;23;20049;-67
2023/12/01 05:31:34;;;;;;;0.95;0.75;;;12.60;75.60;;;;;;7528761;23;20097;-67
2023/12/01 05:34:34;;;;;;;0.50;0.50;;;12.60;75.70;;;;;;7555020;23;20014;-67
2023/12/01 05:37:35;;;;;;;1.90;1.00;;;12.60;75.60;;;;;;7529238;23;20081;-68
2023/12/01 05:40:38;;;;;;;0.80;0.70;;;12.70;75.70;;;;;;7529277;23;20014;-68
2023/12/01 05:43:39;;;;;;;0.68;0.68;;;12.70;75.70;;;;;;7554239;23;20021;-68
2023/12/01 05:46:41;;;;;;;1.15;0.80;;;12.70;75.70;;;;;;7528769;23;20018;-68
2023/12/01 05:49:42;;;;;;;0.43;0.25;;;12.70;75.80;;;;;;7528692;23;20010;-68
2023/12/01 05:52:47;;;;;;;1.08;0.30;;;12.60;75.70;;;;;;7528439;23;20049;-67
2023/12/01 05:55:48;;;;;;;0.10;0.10;;;12.60;75.70;;;;;;7555647;23;20044;-70
2023/12/01 05:58:50;;;;;;;0.10;0.10;;;12.60;75.50;;;;;;7555302;23;20369;-68
2023/12/01 06:01:51;;;;;;;0.25;0.25;;;12.50;75.50;;;;;;7528654;23;20018;-69
2023/12/01 06:04:52;;;;;;;0.65;0.30;;;12.40;75.40;;;;;;7528768;23;20045;-68
2023/12/01 06:07:58;;;;;;;0.40;0.40;;;12.40;75.50;;;;;;7554751;23;20050;-68
2023/12/01 06:10:58;;;;;;;1.13;0.70;;;12.30;75.40;;;;;;7554657;23;20046;-68
2023/12/01 06:14:00;;;;;;;0.60;0.50;;;12.30;75.60;;;;;;7528783;23;20014;-67
2023/12/01 06:17:01;;;;;;;1.25;0.98;;;12.40;75.60;;;;;;7529219;23;20029;-67
2023/12/01 06:20:04;;;;;;;1.20;1.10;;;12.40;75.50;;;;;;7528748;23;20050;-68
2023/12/01 06:23:05;;;;;;;1.02;0.63;;;12.50;75.60;;;;;;7528372;23;20034;-66
2023/12/01 06:26:08;;;;;;;1.10;0.57;;;12.50;75.50;;;;;;7556052;23;20010;-68
2023/12/01 06:29:12;;;;;;;0.73;0.50;;;12.50;76.40;;;;;;7528703;23;20007;-68
2023/12/01 06:32:14;;;;;;;0.50;0.50;;;12.60;75.40;;;;;;7554507;23;20468;-68
2023/12/01 06:35:19;;;;;;;0.85;0.73;;;12.60;75.30;;;;;;7554868;23;20398;-66
2023/12/01 06:38:20;;;;;;;1.20;0.93;;;12.60;75.40;;;;;;7555293;23;20066;-68
2023/12/01 06:41:21;;;;;;;0.45;0.40;;;12.70;75.30;;;;;;7529321;23;20086;-68
2023/12/01 06:44:22;;;;;;;0.85;0.32;;;12.70;75.10;;;;;;7529219;23;20117;-68
2023/12/01 06:47:26;;;;;;;0.80;0.55;;;12.70;75.00;;;;;;7555434;23;20007;-67
2023/12/01 06:50:27;;;;;;;7.03;0.80;;;12.70;75.00;;;;;;7554465;23;20671;-67
2023/12/01 06:53:29;;;;;;;0.70;0.50;;;12.70;74.90;;;;;;7528584;23;20405;-66
2023/12/01 06:56:30;;;;;;;1.00;0.57;;;12.70;74.90;;;;;;7555228;23;20011;-69
2023/12/01 06:59:30;;;;;;;2.72;1.27;;;12.80;75.00;;;;;;7554591;23;20010;-68
2023/12/01 07:02:33;;;;;;;1.77;0.70;;;12.80;74.80;;;;;;7529054;23;20025;-67
2023/12/01 07:05:37;;;;;;;0.15;0.15;;;12.80;74.80;;;;;;7529700;23;20029;-67
2023/12/01 07:08:38;;;;;;;0.35;0.35;;;12.80;74.60;;;;;;7555519;23;20458;-68
2023/12/01 07:11:40;;;;;;;0.35;0.20;;;12.80;74.40;;;;;;7529295;23;20038;-67
2023/12/01 07:14:46;;;;;;;0.85;0.82;;;12.80;74.40;;;;;;7554980;23;20017;-66
2023/12/01 07:17:54;;;;;;;1.63;0.98;;;12.80;74.40;;;;;;7528932;23;20437;-68
2023/12/01 07:21:46;;;;;;;2.72;1.30;;;12.80;74.50;;;;;;7529030;23;20124;-67
2023/12/01 07:24:46;;;;;;;0.95;0.60;;;12.80;74.20;;;;;;7554293;23;20128;-67
2023/12/01 07:27:52;;;;;;;0.20;0.20;;;12.80;73.70;;;;;;7556437;23;20082;-68
2023/12/01 07:30:53;;;;;;;0.47;0.30;;;12.70;73.70;;;;;;7556470;23;20590;-67
2023/12/01 07:33:54;;;;;;;0.77;0.50;;;12.70;73.50;;;;;;7530172;23;20089;-67
2023/12/01 07:36:56;;;;;;;1.05;0.80;;;12.70;73.30;;;;;;7556870;23;20014;-70
2023/12/01 07:39:57;;;;;;;1.90;0.90;;;12.70;73.30;;;;;;7553525;23;20015;-68
2023/12/01 07:42:59;;;;;;;0.88;0.50;;;12.70;73.40;;;;;;7557266;23;20089;-69
2023/12/01 07:46:00;;;;;;;1.02;0.40;;;12.70;73.40;;;;;;7531331;23;20014;-68
2023/12/01 07:49:01;;;;;;;1.15;0.60;;;12.70;73.40;;;;;;7506968;23;20014;-69
2023/12/01 07:52:06;;;;;;;2.58;0.63;;;12.70;73.20;;;;;;7556039;23;20007;-67
2023/12/01 07:55:07;;;;;;;7.80;0.85;;;12.60;73.20;;;;;;7555777;23;20003;-68
2023/12/01 07:58:09;;;;;;;1.05;0.60;;;12.60;73.30;;;;;;7530215;23;20437;-68
2023/12/01 08:01:14;;;;;;;1.63;0.80;;;12.50;73.30;;;;;;7557445;23;20053;-66
2023/12/01 08:04:16;;;;;;;1.05;0.80;;;12.50;73.40;;;;;;7556840;23;20017;-67
2023/12/01 08:07:17;;;;;;;0.40;0.40;;;12.50;73.50;;;;;;7557160;23;20073;-66
2023/12/01 08:10:19;;;;;;;1.52;0.90;;;12.50;73.50;;;;;;7555736;23;20285;-68
2023/12/01 08:13:24;;;;;;;1.50;0.73;;;12.40;73.30;;;;;;7531670;23;20036;-67
2023/12/01 08:16:26;;;;;;;0.10;0.10;;;12.40;73.30;;;;;;7530965;23;20010;-67
2023/12/01 08:19:27;;;;;;;0.20;0.20;;;12.30;73.50;;;;;;7530400;23;20029;-67
2023/12/01 08:22:29;;;;;;;1.27;0.60;;;12.20;73.50;;;;;;7556798;23;20017;-68
2023/12/01 08:25:30;;;;;;;0.20;0.20;;;12.20;73.60;;;;;;7531242;23;20003;-66
2023/12/01 08:28:31;;;;;;;0.25;0.25;;;12.20;73.70;;;;;;7556606;23;20161;-68
2023/12/01 08:31:31;;;;;;;0.13;0.13;;;12.20;73.80;;;;;;7556413;23;20645;-69
2023/12/01 08:34:33;;;;;;;0.30;0.30;;;12.30;73.70;;;;;;7529750;23;20021;-67
2023/12/01 08:37:34;;;;;;;0.40;0.40;;;12.30;73.70;;;;;;7555902;23;20021;-68
2023/12/01 08:40:36;;;;;;;0.40;0.40;;;12.30;73.60;;;;;;7505708;23;20030;-68
2023/12/01 08:43:37;;;;;;;5.35;1.00;;;12.40;73.70;;;;;;7556577;23;20057;-69
2023/12/01 08:46:38;;;;;;;2.78;1.15;;;12.40;73.70;;;;;;7530013;23;20010;-67
2023/12/01 08:49:42;;;;;;;4.28;1.52;;;12.50;73.70;;;;;;7556249;23;20365;-68
2023/12/01 08:52:43;;;;;;;1.38;0.95;;;12.50;73.60;;;;;;7556012;23;20094;-67
2023/12/01 08:55:44;;;;;;;1.40;0.90;;;12.60;73.60;;;;;;7555682;23;20392;-69
2023/12/01 08:58:45;;;;;;;2.67;1.30;;;12.60;73.50;;;;;;7555975;23;20002;-69
2023/12/01 09:01:46;;;;;;;8.75;1.08;;;12.60;73.50;;;;;;7506188;23;20021;-68
2023/12/01 09:04:48;;;;;;;1.85;0.80;;;12.60;73.50;;;;;;7556007;23;20113;-67
2023/12/01 09:07:49;;;;;;;1.73;1.05;;;12.60;73.50;;;;;;7556310;23;20505;-68
2023/12/01 09:10:50;;;;;;;2.53;1.10;;;12.60;73.50;;;;;;7555730;23;20097;-68
2023/12/01 09:13:51;;;;;;;3.65;1.70;;;12.50;73.70;;;;;;7529801;23;20017;-67
2023/12/01 09:16:54;;;;;;;1.52;1.25;;;12.50;73.90;;;;;;7555456;23;20044;-68
2023/12/01 09:19:54;;;;;;;2.78;1.02;;;12.50;73.90;;;;;;7555675;23;20018;-67
2023/12/01 09:22:55;;;;;;;1.60;1.10;;;12.50;74.00;;;;;;7529231;23;20076;-69
2023/12/01 09:25:56;;;;;;;1.42;1.08;;;12.40;74.70;;;;;;7555049;23;20002;-68
2023/12/01 09:28:57;;;;;;;3.00;1.52;;;12.50;74.10;;;;;;7529092;23;20477;-66
2023/12/01 09:31:58;;;;;;;2.17;1.08;;;12.50;74.00;;;;;;7505952;23;20066;-67
2023/12/01 09:35:00;;;;;;;2.38;1.17;;;12.50;74.00;;;;;;7554042;23;20086;-68
2023/12/01 09:38:01;;;;;;;1.85;0.90;;;12.50;74.00;;;;;;7529051;23;20084;-68
2023/12/01 09:41:03;;;;;;;1.83;1.30;;;12.40;73.90;;;;;;7554708;23;20401;-67
2023/12/01 09:44:05;;;;;;;11.13;5.82;;;12.40;74.00;;;;;;7529280;23;20006;-69
2023/12/01 09:47:17;;;;;;;2.60;1.48;;;12.40;74.10;;;;;;7553040;23;20018;-68
2023/12/01 09:50:22;;;;;;;10.23;2.03;;;12.40;74.20;;;;;;7553743;23;20034;-68
2023/12/01 09:53:23;;;;;;;5.68;2.20;;;12.50;74.20;;;;;;7556152;23;20039;-68
2023/12/01 09:56:26;;;;;;;4.05;1.80;;;12.40;74.20;;;;;;7505719;23;20184;-69
2023/12/01 10:03:43;;;;;;;3.65;1.15;;;12.40;74.10;;;;;;7555335;23;20015;-69
2023/12/01 10:06:44;;;;;;;0.73;0.47;;;12.40;74.30;;;;;;7528047;23;20013;-69
2023/12/01 10:09:45;;;;;;;1.63;1.02;;;12.40;74.40;;;;;;7528866;23;20382;-68
2023/12/01 10:12:56;;;;;;;1.15;1.05;;;12.40;74.20;;;;;;7529582;23;20582;-69
2023/12/01 10:15:59;;;;;;;9.07;1.67;;;12.40;74.20;;;;;;7555598;23;20097;-69
2023/12/01 10:19:01;;;;;;;2.40;1.48;;;12.40;74.20;;;;;;7554519;23;20021;-68
2023/12/01 10:22:02;;;;;;;2.35;1.30;;;12.50;74.20;;;;;;7555932;23;20061;-69
2023/12/01 10:25:05;;;;;;;3.40;1.73;;;12.50;74.20;;;;;;7529573;23;20015;-69
2023/12/01 10:28:06;;;;;;;5.47;2.70;;;12.50;74.20;;;;;;7554754;23;19999;-67
2023/12/01 10:31:08;;;;;;;5.30;1.90;;;12.50;74.00;;;;;;7553865;23;20109;-69
2023/12/01 10:34:10;;;;;;;1.50;1.23;;;12.50;74.20;;;;;;7553081;23;20010;-66
2023/12/01 10:37:12;;;;;;;1.83;1.17;;;12.50;74.20;;;;;;7527616;23;20041;-68
2023/12/01 10:40:13;;;;;;;2.75;1.02;;;12.50;74.20;;;;;;7554088;23;20139;-67
2023/12/01 10:43:15;;;;;;;0.95;0.63;;;12.50;74.20;;;;;;7554916;23;20116;-67
2023/12/01 10:46:21;;;;;;;1.85;0.95;;;12.50;74.20;;;;;;7554538;23;20003;-69
2023/12/01 10:49:23;;;;;;;1.38;0.82;;;12.50;74.00;;;;;;7554830;23;20013;-66
2023/12/01 10:52:25;;;;;;;4.35;1.10;;;12.50;74.10;;;;;;7554577;23;20006;-67
2023/12/01 10:55:25;;;;;;;4.57;1.60;;;12.60;74.10;;;;;;7553778;23;20034;-68
2023/12/01 10:58:31;;;;;;;3.33;1.23;;;12.60;74.00;;;;;;7553122;23;20187;-68
2023/12/01 11:01:32;;;;;;;6.97;1.50;;;12.70;73.90;;;;;;7554187;23;20421;-71
2023/12/01 11:04:34;;;;;;;0.95;0.65;;;12.70;73.90;;;;;;7529985;23;20013;-68
2023/12/01 11:07:56;;;;;;;3.58;2.20;;;12.70;73.70;;;;;;7505750;23;20022;-69
2023/12/01 11:11:11;;;;;;;4.78;2.30;;;12.70;73.70;;;;;;7533255;23;20025;-69
2023/12/01 11:14:21;;;;;;;4.22;2.10;;;12.60;73.50;;;;;;7530808;23;20049;-68
2023/12/01 11:17:22;;;;;;;2.83;1.17;;;12.60;73.60;;;;;;7530967;23;20287;-69
2023/12/01 11:24:34;;;;;;;3.35;2.00;;;12.50;73.50;;;;;;7554583;23;20015;-69
2023/12/01 11:27:35;;;;;;;2.35;1.85;;;12.50;73.70;;;;;;7557882;23;20010;-68
2023/12/01 11:31:00;;;;;;;4.75;1.30;;;12.50;73.80;;;;;;7506192;23;20077;-68
2023/12/01 11:34:04;;;;;;;2.38;1.40;;;12.50;73.70;;;;;;7530560;23;20073;-68
2023/12/01 11:37:06;;;;;;;3.30;1.83;;;12.50;73.70;;;;;;7532330;23;20102;-67
2023/12/01 11:40:37;;;;;;;2.65;1.80;;;12.50;73.80;;;;;;7531438;23;20361;-70
2023/12/01 11:43:39;;;;;;;2.95;1.55;;;12.50;73.80;;;;;;7555449;23;20070;-69
2023/12/01 11:46:40;;;;;;;1.65;1.33;;;12.60;73.70;;;;;;7556626;23;20018;-69
2023/12/01 11:49:45;;;;;;;4.63;1.58;;;12.60;73.50;;;;;;7530511;23;20040;-68
2023/12/01 11:52:46;;;;;;;1.88;1.40;;;12.50;73.50;;;;;;7556564;23;20084;-68
2023/12/01 11:55:50;;;;;;;2.38;1.30;;;12.50;73.60;;;;;;7556532;23;20378;-70
2023/12/01 11:58:52;;;;;;;2.10;1.20;;;12.40;73.70;;;;;;7531140;23;20033;-70
2023/12/01 12:01:54;;;;;;;4.55;1.50;;;12.50;73.90;;;;;;7556764;23;20061;-68
2023/12/01 12:05:00;;;;;;;4.47;1.88;;;12.50;73.80;;;;;;7556337;23;20029;-69
2023/12/01 12:08:01;;;;;;;2.85;1.45;;;12.40;73.80;;;;;;7556308;23;20006;-69
2023/12/01 12:11:02;;;;;;;5.80;1.50;;;12.50;73.90;;;;;;7555119;23;20482;-71
2023/12/01 12:14:07;;;;;;;3.85;1.48;;;12.50;73.80;;;;;;7529138;23;20010;-69
2023/12/01 12:17:08;;;;;;;2.90;1.65;;;12.50;73.70;;;;;;7530974;23;20026;-70
2023/12/01 12:20:09;;;;;;;3.33;1.88;;;12.50;73.70;;;;;;7530755;23;20041;-68
2023/12/01 12:23:11;;;;;;;2.17;1.40;;;12.50;73.50;;;;;;7556877;23;20799;-69
2023/12/01 12:26:20;;;;;;;3.22;2.15;;;12.50;73.60;;;;;;7556115;23;20024;-69
2023/12/01 12:29:23;;;;;;;2.92;1.77;;;12.60;73.70;;;;;;7555803;23;20453;-69
2023/12/01 12:32:24;;;;;;;1.40;1.27;;;12.60;73.50;;;;;;7529964;23;20026;-69
2023/12/01 12:35:27;;;;;;;3.60;2.00;;;12.60;73.40;;;;;;7530437;23;20405;-68
2023/12/01 12:38:29;;;;;;;1.75;1.20;;;12.60;73.50;;;;;;7556358;23;20051;-70
2023/12/01 12:41:32;;;;;;;1.88;1.20;;;12.50;73.30;;;;;;7556017;23;20073;-69
2023/12/01 12:44:35;;;;;;;5.68;2.75;;;12.50;73.40;;;;;;7530076;23;20346;-68
2023/12/01 12:47:39;;;;;;;7.97;3.05;;;12.50;73.30;;;;;;7530788;23;20014;-68
2023/12/01 12:50:46;;;;;;;8.00;2.13;;;12.50;73.60;;;;;;7530245;23;20010;-67
2023/12/01 12:53:47;;;;;;;2.53;0.95;;;12.50;73.60;;;;;;7555822;23;20025;-68
2023/12/01 12:56:48;;;;;;;1.73;1.30;;;12.50;73.60;;;;;;7555303;23;20141;-67
2023/12/01 12:59:54;;;;;;;2.45;1.45;;;12.40;73.40;;;;;;7555636;23;20077;-67
2023/12/01 13:02:55;;;;;;;2.08;1.10;;;12.30;73.20;;;;;;7555671;23;20018;-68
2023/12/01 13:05:56;;;;;;;2.55;1.80;;;12.30;73.10;;;;;;7555490;23;20137;-69
2023/12/01 13:08:58;;;;;;;2.45;1.38;;;12.30;73.30;;;;;;7555173;23;20007;-68
2023/12/01 13:11:59;;;;;;;2.35;1.10;;;12.30;73.20;;;;;;7553349;23;20390;-67
2023/12/01 13:15:05;;;;;;;2.17;1.50;;;12.20;73.20;;;;;;7529670;23;20010;-70
2023/12/01 13:18:06;;;;;;;2.03;1.35;;;12.20;73.30;;;;;;7555689;23;20026;-68
2023/12/01 13:21:08;;;;;;;3.13;1.85;;;12.20;73.30;;;;;;7505386;23;20006;-68
2023/12/01 13:24:12;;;;;;;1.90;1.25;;;12.10;73.00;;;;;;7530063;23;20132;-69
2023/12/01 13:27:14;;;;;;;3.63;2.47;;;12.10;73.10;;;;;;7555487;23;20108;-67
2023/12/01 13:30:15;;;;;;;3.03;2.00;;;12.00;73.10;;;;;;7554997;23;20010;-69
2023/12/01 13:33:16;;;;;;;5.75;2.90;;;12.00;73.30;;;;;;7529783;23;20097;-68
2023/12/01 13:36:16;;;;;;;3.03;1.45;;;12.00;73.10;;;;;;7555047;23;20045;-66
2023/12/01 13:39:19;;;;;;;3.05;1.10;;;11.90;73.10;;;;;;7505065;23;20121;-68
2023/12/01 13:42:20;;;;;;;1.30;0.88;;;11.90;73.10;;;;;;7555307;23;20015;-68
2023/12/01 13:45:20;;;;;;;3.28;1.00;;;11.70;73.10;;;;;;7505036;23;20017;-69
2023/12/01 13:48:22;;;;;;;1.98;0.82;;;11.70;73.30;;;;;;7530255;23;20055;-69
2023/12/01 13:51:24;;;;;;;1.55;0.93;;;11.60;73.30;;;;;;7528961;23;20073;-68
2023/12/01 13:54:25;;;;;;;2.90;1.10;;;11.80;73.40;;;;;;7554891;23;20085;-68
2023/12/01 13:57:26;;;;;;;3.80;1.90;;;11.80;73.40;;;;;;7528356;23;20113;-68
2023/12/01 14:00:26;;;;;;;5.00;1.77;;;11.80;73.20;;;;;;7554389;23;20010;-69
2023/12/01 14:03:28;;;;;;;1.27;0.80;;;11.80;73.20;;;;;;7553876;23;20182;-69
2023/12/01 14:06:29;;;;;;;0.30;0.30;;;11.70;73.10;;;;;;7529937;23;20401;-69
2023/12/01 14:09:30;;;;;;;0.70;0.52;;;11.70;72.90;;;;;;7529191;23;20020;-68
2023/12/01 14:12:31;;;;;;;0.32;0.30;;;11.60;72.10;;;;;;7530222;23;20006;-70
2023/12/01 14:15:34;;;;;;;0.63;0.50;;;11.50;71.90;;;;;;7530131;23;20033;-68
2023/12/01 14:18:35;;;;;;;1.40;0.68;;;11.40;71.90;;;;;;7553470;23;20058;-70
2023/12/01 14:21:36;;;;;;;0.30;0.20;;;11.20;72.70;;;;;;7556108;23;20062;-69
2023/12/01 14:24:38;;;;;;;0.30;0.30;;;11.20;71.30;;;;;;7555636;23;20039;-69
2023/12/01 14:27:39;;;;;;;0.20;0.20;;;11.10;70.90;;;;;;7555578;23;20003;-69
2023/12/01 14:30:40;;;;;;;0.57;0.40;;;11.00;70.80;;;;;;7504622;23;20006;-70
2023/12/01 14:33:42;;;;;;;0.17;0.10;;;11.00;70.70;;;;;;7529589;23;20010;-70
2023/12/01 14:36:43;;;;;;;0.63;0.50;;;10.90;70.10;;;;;;7529137;23;20014;-69
2023/12/01 14:39:46;;;;;;;0.10;0.10;;;10.80;70.10;;;;;;7529355;23;20010;-70
2023/12/01 14:42:47;;;;;;;0.50;0.30;;;10.80;69.80;;;;;;7554866;23;20464;-71
2023/12/01 14:45:55;;;;;;;0.28;0.28;;;10.60;69.30;;;;;;7555131;23;20003;-68
2023/12/01 14:48:56;;;;;;;1.87;0.93;;;10.50;69.70;;;;;;7529593;23;20014;-68
2023/12/01 14:51:57;;;;;;;0.65;0.43;;;10.50;69.80;;;;;;7528861;23;20077;-68
2023/12/01 14:55:03;;;;;;;0.47;0.28;;;10.50;69.90;;;;;;7555764;23;20081;-68
2023/12/01 14:58:05;;;;;;;0.70;0.38;;;10.40;69.90;;;;;;7555746;23;20162;-70
2023/12/01 15:01:06;;;;;;;1.65;0.32;;;10.40;69.90;;;;;;7528773;23;20022;-68
2023/12/01 15:04:07;;;;;;;0.73;0.50;;;10.30;70.00;;;;;;7528857;23;20016;-68
2023/12/01 15:07:07;;;;;;;0.47;0.38;;;10.20;70.00;;;;;;7506123;23;20040;-70
2023/12/01 15:10:08;;;;;;;0.65;0.30;;;10.20;70.20;;;;;;7555013;23;20018;-69
2023/12/01 15:13:09;;;;;;;1.23;0.55;;;10.10;70.20;;;;;;7555073;23;20420;-69
2023/12/01 15:16:10;;;;;;;1.35;0.52;;;10.10;70.10;;;;;;7504971;23;20010;-68
2023/12/01 15:19:11;;;;;;;0.20;0.20;;;10.10;70.10;;;;;;7529870;23;20098;-67
2023/12/01 15:22:13;;;;;;;0.35;0.20;;;10.00;69.80;;;;;;7554279;23;20014;-68
2023/12/01 15:25:15;;;;;;;0.43;0.32;;;9.90;69.60;;;;;;7553890;23;20010;-69
2023/12/01 15:28:16;;;;;;;0.08;0.08;;;9.80;69.80;;;;;;7554185;23;20006;-69
2023/12/01 15:31:18;;;;;;;1.05;0.57;;;9.80;69.70;;;;;;7530446;23;20015;-69
2023/12/01 15:34:18;;;;;;;0.20;0.20;;;9.70;69.90;;;;;;7555309;23;20317;-68
2023/12/01 15:37:21;;;;;;;0.00;0.00;;;9.70;70.00;;;;;;7555421;23;20074;-69
2023/12/01 15:40:22;;;;;;;0.22;0.22;;;9.70;70.10;;;;;;7529164;23;20065;-69
2023/12/01 15:43:23;;;;;;;0.55;0.15;;;9.70;70.00;;;;;;7528886;23;20100;-69
2023/12/01 15:46:24;;;;;;;0.30;0.15;;;9.60;69.90;;;;;;7556153;23;20002;-69
2023/12/01 15:49:25;;;;;;;0.08;0.03;;;9.50;69.70;;;;;;7556103;23;20007;-69
2023/12/01 15:52:26;;;;;;;0.10;0.10;;;9.50;69.90;;;;;;7530514;23;20022;-68
2023/12/01 15:55:28;;;;;;;0.10;0.10;;;9.40;70.00;;;;;;7556460;23;20047;-68
2023/12/01 15:58:31;;;;;;;0.70;0.15;;;9.40;70.10;;;;;;7556029;23;20433;-69